Time;durP1;ratioP1;P1;durP2;ratioP2;P2;SDS_P1;SDS_P2;PMS_P1;PMS_P2;Temp;Humidity;BMP_temperature;BMP_pressure;BME280_temperature;BME280_humidity;BME280_pressure;Samples;Min_cycle;Max_cycle;Signal;HPM_P1;HPM_P2
2023/03/10 00:01:54;;;;;;;34.42;24.63;;;;;;;;;;10069082;28;20050;-65
2023/03/10 00:06:48;;;;;;;32.17;22.92;;;;;;;;;;10071996;28;20057;-64
2023/03/10 00:11:42;;;;;;;36.30;25.25;;;;;;;;;;10071708;28;20493;-66
2023/03/10 00:16:35;;;;;;;33.47;26.88;;;;;;;;;;10071450;28;20444;-66
2023/03/10 00:21:31;;;;;;;35.80;27.50;;;;;;;;;;10072923;28;20042;-66
2023/03/10 00:26:26;;;;;;;31.75;26.98;;;;;;;;;;10071295;28;20050;-65
2023/03/10 00:31:22;;;;;;;37.75;25.55;;;;;;;;;;10069777;28;20064;-66
2023/03/10 00:36:17;;;;;;;40.35;27.05;;;;;;;;;;10070597;28;20103;-66
2023/03/10 00:41:20;;;;;;;37.65;28.50;;;;;;;;;;10071124;28;20454;-66
2023/03/10 00:46:13;;;;;;;42.38;27.48;;;;;;;;;;10071378;28;20053;-64
2023/03/10 00:51:07;;;;;;;40.15;26.52;;;;;;;;;;10071037;28;20060;-64
2023/03/10 00:56:07;;;;;;;38.00;27.15;;;;;;;;;;10070488;28;20100;-64
2023/03/10 01:01:00;;;;;;;38.38;26.65;;;;;;;;;;10068413;28;20483;-64
2023/03/10 01:05:55;;;;;;;37.13;26.55;;;;;;;;;;10068519;28;20045;-66
2023/03/10 01:10:48;;;;;;;38.95;28.10;;;;;;;;;;10068733;28;20087;-64
2023/03/10 01:15:47;;;;;;;37.92;27.65;;;;;;;;;;10069051;28;20050;-64
2023/03/10 01:20:42;;;;;;;31.53;28.10;;;;;;;;;;10057709;28;20037;-64
2023/03/10 01:25:36;;;;;;;36.25;26.80;;;;;;;;;;10057968;28;20041;-65
2023/03/10 01:30:29;;;;;;;35.70;25.02;;;;;;;;;;10067123;28;20077;-65
2023/03/10 01:35:23;;;;;;;38.88;27.40;;;;;;;;;;10068741;28;20153;-65
2023/03/10 01:40:17;;;;;;;46.53;29.33;;;;;;;;;;10067016;28;20037;-65
2023/03/10 01:45:12;;;;;;;34.05;26.77;;;;;;;;;;10067793;28;20412;-64
2023/03/10 01:50:12;;;;;;;35.65;25.92;;;;;;;;;;10070702;28;20059;-64
2023/03/10 01:55:11;;;;;;;33.47;26.92;;;;;;;;;;10066439;28;20049;-64
2023/03/10 02:00:15;;;;;;;33.15;25.60;;;;;;;;;;10067747;28;20053;-64
2023/03/10 02:05:20;;;;;;;34.28;25.00;;;;;;;;;;10041831;28;20050;-64
2023/03/10 02:10:14;;;;;;;34.90;27.17;;;;;;;;;;10049681;28;20068;-65
2023/03/10 02:15:10;;;;;;;35.85;26.52;;;;;;;;;;10066913;28;20071;-66
2023/03/10 02:20:19;;;;;;;37.63;25.73;;;;;;;;;;10067046;28;20409;-65
2023/03/10 02:25:24;;;;;;;44.40;27.40;;;;;;;;;;10065559;28;20050;-65
2023/03/10 02:30:31;;;;;;;45.33;27.35;;;;;;;;;;10066718;28;20056;-65
2023/03/10 02:35:24;;;;;;;41.22;28.17;;;;;;;;;;10048848;28;20050;-65
2023/03/10 02:40:36;;;;;;;46.63;27.60;;;;;;;;;;10067109;28;20044;-64
2023/03/10 02:45:37;;;;;;;42.60;27.08;;;;;;;;;;10065749;28;20058;-64
2023/03/10 02:50:36;;;;;;;43.60;27.27;;;;;;;;;;10065854;28;20140;-65
2023/03/10 02:55:30;;;;;;;38.10;24.88;;;;;;;;;;10064580;28;20057;-65
2023/03/10 03:00:24;;;;;;;30.17;25.98;;;;;;;;;;10064931;28;20056;-65
2023/03/10 03:05:18;;;;;;;29.95;24.10;;;;;;;;;;10065912;28;20054;-65
2023/03/10 03:10:12;;;;;;;33.15;24.13;;;;;;;;;;10064179;28;20056;-65
2023/03/10 03:15:05;;;;;;;38.65;22.98;;;;;;;;;;10064356;28;20128;-65
2023/03/10 03:19:59;;;;;;;32.47;22.52;;;;;;;;;;10065248;28;20141;-65
2023/03/10 03:24:51;;;;;;;31.10;22.30;;;;;;;;;;10064391;28;20084;-65
2023/03/10 03:29:45;;;;;;;32.15;23.05;;;;;;;;;;10063886;28;20054;-65
2023/03/10 03:34:38;;;;;;;36.75;23.98;;;;;;;;;;10063744;28;20038;-64
2023/03/10 03:39:32;;;;;;;35.75;22.10;;;;;;;;;;10064441;28;20572;-65
2023/03/10 03:44:29;;;;;;;33.85;22.13;;;;;;;;;;10064005;28;20041;-64
2023/03/10 03:49:22;;;;;;;32.72;24.92;;;;;;;;;;10095708;28;20058;-64
2023/03/10 03:54:15;;;;;;;34.65;23.30;;;;;;;;;;10062975;28;20627;-64
2023/03/10 03:59:08;;;;;;;27.67;22.27;;;;;;;;;;10063704;28;20144;-64
2023/03/10 04:04:01;;;;;;;34.67;24.15;;;;;;;;;;10065749;28;20077;-64
2023/03/10 04:08:55;;;;;;;31.27;23.40;;;;;;;;;;10072040;28;20049;-64
2023/03/10 04:13:52;;;;;;;37.63;25.08;;;;;;;;;;10070561;28;20100;-65
2023/03/10 04:18:45;;;;;;;40.03;25.13;;;;;;;;;;10070052;28;20053;-66
2023/03/10 04:23:42;;;;;;;33.85;24.33;;;;;;;;;;10069694;28;20095;-66
2023/03/10 04:28:39;;;;;;;36.53;24.27;;;;;;;;;;10069856;28;20058;-67
2023/03/10 04:33:35;;;;;;;35.50;25.88;;;;;;;;;;10069709;28;20057;-66
2023/03/10 04:38:29;;;;;;;48.67;32.53;;;;;;;;;;10067370;28;20057;-64
2023/03/10 04:43:21;;;;;;;47.70;32.85;;;;;;;;;;10048941;28;20103;-66
2023/03/10 04:48:15;;;;;;;43.72;34.40;;;;;;;;;;10064999;28;20054;-66
2023/03/10 04:53:07;;;;;;;47.17;33.60;;;;;;;;;;10053885;28;20049;-66
2023/03/10 04:58:01;;;;;;;41.13;29.20;;;;;;;;;;10070054;28;20397;-66
2023/03/10 05:02:54;;;;;;;38.85;26.60;;;;;;;;;;10068772;28;20045;-66
2023/03/10 05:07:46;;;;;;;46.10;30.27;;;;;;;;;;10064792;28;20054;-66
2023/03/10 05:12:41;;;;;;;35.70;26.15;;;;;;;;;;10062670;28;20049;-66
2023/03/10 05:17:35;;;;;;;44.55;25.85;;;;;;;;;;10069020;28;20506;-65
2023/03/10 05:22:30;;;;;;;38.20;25.95;;;;;;;;;;10062139;28;20041;-66
2023/03/10 05:27:23;;;;;;;32.38;25.35;;;;;;;;;;10060777;28;20047;-65
2023/03/10 05:32:16;;;;;;;35.42;25.13;;;;;;;;;;10063252;28;20046;-65
2023/03/10 05:37:12;;;;;;;31.30;25.75;;;;;;;;;;10053188;28;20075;-66
2023/03/10 05:42:05;;;;;;;38.95;26.13;;;;;;;;;;10066308;28;20080;-64
2023/03/10 05:47:00;;;;;;;29.48;24.60;;;;;;;;;;10067409;28;20041;-63
2023/03/10 05:51:54;;;;;;;37.33;24.88;;;;;;;;;;10062403;28;20065;-65
2023/03/10 05:56:47;;;;;;;35.30;24.40;;;;;;;;;;10065524;28;20060;-64
2023/03/10 06:01:41;;;;;;;43.33;22.65;;;;;;;;;;10049566;28;20056;-66
2023/03/10 06:06:34;;;;;;;28.50;22.38;;;;;;;;;;10064010;28;20144;-66
2023/03/10 06:11:28;;;;;;;26.25;21.05;;;;;;;;;;10065176;28;20053;-66
2023/03/10 06:16:20;;;;;;;30.38;23.58;;;;;;;;;;10060191;28;20068;-66
2023/03/10 06:21:14;;;;;;;34.55;23.05;;;;;;;;;;10063594;28;20053;-66
2023/03/10 06:26:10;;;;;;;27.73;23.48;;;;;;;;;;10058035;28;20386;-65
2023/03/10 06:31:06;;;;;;;27.52;21.85;;;;;;;;;;10057686;28;20081;-63
2023/03/10 06:36:00;;;;;;;30.48;21.73;;;;;;;;;;10051575;28;20058;-65
2023/03/10 06:40:53;;;;;;;28.60;23.48;;;;;;;;;;10051776;28;20045;-66
2023/03/10 06:45:47;;;;;;;35.15;23.23;;;;;;;;;;10055739;28;20053;-66
2023/03/10 06:50:46;;;;;;;31.15;24.20;;;;;;;;;;10052785;28;20053;-66
2023/03/10 06:55:39;;;;;;;42.35;28.60;;;;;;;;;;10045090;28;20213;-66
2023/03/10 07:00:32;;;;;;;31.35;26.98;;;;;;;;;;10038281;28;20046;-65
2023/03/10 07:05:26;;;;;;;36.05;27.52;;;;;;;;;;10058457;28;20140;-64
2023/03/10 07:10:21;;;;;;;40.92;28.65;;;;;;;;;;10056738;28;20059;-64
2023/03/10 07:15:15;;;;;;;33.90;28.02;;;;;;;;;;10055434;28;20096;-64
2023/03/10 07:20:12;;;;;;;36.60;28.88;;;;;;;;;;10053753;28;20042;-64
2023/03/10 07:25:07;;;;;;;46.72;26.85;;;;;;;;;;10051661;28;20049;-64
2023/03/10 07:30:01;;;;;;;34.88;27.13;;;;;;;;;;10052399;28;20029;-64
2023/03/10 07:34:55;;;;;;;43.17;28.40;;;;;;;;;;10060657;28;20046;-66
2023/03/10 07:39:48;;;;;;;32.85;27.92;;;;;;;;;;10067651;28;20539;-65
2023/03/10 07:44:42;;;;;;;33.90;27.05;;;;;;;;;;10071082;28;20037;-64
2023/03/10 07:49:36;;;;;;;34.65;25.50;;;;;;;;;;10072110;28;20052;-64
2023/03/10 07:54:29;;;;;;;37.53;26.65;;;;;;;;;;10071312;28;20076;-64
2023/03/10 07:59:22;;;;;;;30.58;24.27;;;;;;;;;;10070557;28;20049;-64
2023/03/10 08:04:15;;;;;;;34.50;23.38;;;;;;;;;;10070274;28;20053;-64
2023/03/10 08:09:08;;;;;;;31.67;24.23;;;;;;;;;;10071376;28;20049;-64
2023/03/10 08:14:03;;;;;;;36.45;23.45;;;;;;;;;;10070146;28;20053;-63
2023/03/10 08:18:56;;;;;;;29.05;24.55;;;;;;;;;;10068891;28;20077;-65
2023/03/10 08:23:49;;;;;;;30.58;25.20;;;;;;;;;;10068675;28;20061;-64
2023/03/10 08:28:43;;;;;;;33.92;25.55;;;;;;;;;;10069850;28;20041;-65
2023/03/10 08:33:37;;;;;;;28.88;23.95;;;;;;;;;;10069454;28;20033;-64
2023/03/10 08:38:29;;;;;;;34.63;26.13;;;;;;;;;;10069685;28;20046;-65
2023/03/10 08:43:23;;;;;;;34.42;23.30;;;;;;;;;;10069237;28;20069;-65
2023/03/10 08:48:16;;;;;;;38.20;25.13;;;;;;;;;;10069312;28;20080;-65
2023/03/10 08:53:11;;;;;;;33.63;25.73;;;;;;;;;;10067085;28;20053;-64
2023/03/10 08:58:04;;;;;;;34.78;25.95;;;;;;;;;;10065219;28;20107;-63
2023/03/10 09:02:57;;;;;;;31.67;24.50;;;;;;;;;;10068808;28;20056;-64
2023/03/10 09:07:52;;;;;;;31.17;23.95;;;;;;;;;;10066777;28;20045;-65
2023/03/10 09:12:44;;;;;;;30.08;20.30;;;;;;;;;;10062581;28;20057;-63
2023/03/10 09:17:37;;;;;;;30.15;19.20;;;;;;;;;;10065171;28;20136;-66
2023/03/10 09:22:31;;;;;;;25.85;18.15;;;;;;;;;;10066135;28;20492;-67
2023/03/10 09:27:24;;;;;;;21.83;17.73;;;;;;;;;;10064818;28;20050;-66
2023/03/10 09:32:17;;;;;;;25.83;17.98;;;;;;;;;;10064862;28;20059;-67
2023/03/10 09:37:11;;;;;;;19.40;15.30;;;;;;;;;;10064245;28;20064;-67
2023/03/10 09:42:32;;;;;;;17.23;15.40;;;;;;;;;;10059249;28;20057;-66
2023/03/10 09:47:44;;;;;;;22.45;12.48;;;;;;;;;;10051313;28;20053;-75
2023/03/10 09:52:45;;;;;;;19.85;12.45;;;;;;;;;;10061098;28;20137;-67
2023/03/10 09:57:39;;;;;;;18.05;12.60;;;;;;;;;;10057368;28;20103;-68
2023/03/10 10:02:35;;;;;;;14.23;10.90;;;;;;;;;;10061421;28;20057;-70
2023/03/10 10:07:41;;;;;;;17.00;10.50;;;;;;;;;;10057628;28;20140;-70
2023/03/10 10:12:35;;;;;;;13.55;7.50;;;;;;;;;;10061823;28;20077;-83
2023/03/10 10:17:37;;;;;;;14.60;7.55;;;;;;;;;;10060105;28;20108;-72
2023/03/10 10:22:44;;;;;;;10.52;6.97;;;;;;;;;;10055202;28;20790;-71
2023/03/10 10:27:38;;;;;;;15.10;6.95;;;;;;;;;;10059061;28;20761;-66
2023/03/10 10:32:31;;;;;;;13.80;8.77;;;;;;;;;;10052624;28;20037;-67
2023/03/10 10:37:35;;;;;;;10.80;7.15;;;;;;;;;;10060687;28;20046;-69
2023/03/10 10:42:33;;;;;;;8.93;7.38;;;;;;;;;;10059320;28;20049;-69
2023/03/10 10:47:33;;;;;;;11.88;4.28;;;;;;;;;;10059517;28;20057;-66
2023/03/10 10:52:27;;;;;;;5.60;3.70;;;;;;;;;;10056120;28;20134;-66
2023/03/10 10:57:23;;;;;;;8.88;3.72;;;;;;;;;;10059053;28;20091;-68
2023/03/10 11:02:35;;;;;;;3.40;1.70;;;;;;;;;;10057604;28;20081;-67
2023/03/10 11:07:29;;;;;;;4.07;2.53;;;;;;;;;;10052084;28;20059;-66
2023/03/10 11:12:33;;;;;;;6.05;2.92;;;;;;;;;;10056518;28;20049;-68
2023/03/10 11:17:35;;;;;;;6.93;3.70;;;;;;;;;;10064982;28;20053;-63
2023/03/10 11:22:52;;;;;;;9.73;5.10;;;;;;;;;;10066792;28;20057;-68
2023/03/10 11:27:53;;;;;;;7.35;5.63;;;;;;;;;;10096792;28;20066;-68
2023/03/10 11:32:52;;;;;;;9.63;6.15;;;;;;;;;;10081298;28;20107;-66
2023/03/10 11:38:17;;;;;;;6.93;5.32;;;;;;;;;;10069123;28;20041;-67
2023/03/10 11:43:41;;;;;;;8.20;5.03;;;;;;;;;;10069970;28;21382;-67
2023/03/10 11:49:00;;;;;;;9.13;5.15;;;;;;;;;;10068298;28;20050;-67
2023/03/10 11:53:56;;;;;;;7.82;4.85;;;;;;;;;;10069605;28;20030;-67
2023/03/10 11:59:12;;;;;;;9.63;6.75;;;;;;;;;;10068365;28;20049;-67
2023/03/10 12:04:29;;;;;;;13.23;9.45;;;;;;;;;;10068974;28;20053;-67
2023/03/10 12:09:48;;;;;;;10.38;9.00;;;;;;;;;;10061523;28;20052;-67
2023/03/10 12:14:42;;;;;;;13.32;9.82;;;;;;;;;;10065307;28;20054;-67
2023/03/10 12:20:08;;;;;;;11.52;8.38;;;;;;;;;;10068761;28;20064;-65
2023/03/10 12:25:01;;;;;;;11.63;7.53;;;;;;;;;;10069698;28;20063;-65
2023/03/10 12:29:54;;;;;;;14.52;10.60;;;;;;;;;;10066375;28;20041;-66
2023/03/10 12:35:27;;;;;;;12.50;9.98;;;;;;;;;;10064575;28;20057;-65
2023/03/10 12:40:48;;;;;;;16.13;9.48;;;;;;;;;;10059878;28;20033;-65
2023/03/10 12:45:50;;;;;;;16.77;9.05;;;;;;;;;;10064344;28;20049;-64
2023/03/10 12:50:58;;;;;;;14.55;9.05;;;;;;;;;;10067761;28;20140;-66
2023/03/10 12:56:12;;;;;;;13.13;8.75;;;;;;;;;;10056123;28;20120;-65
2023/03/10 13:01:06;;;;;;;15.40;10.00;;;;;;;;;;10065608;28;20045;-60
2023/03/10 13:06:06;;;;;;;12.95;10.40;;;;;;;;;;10066282;28;20107;-64
2023/03/10 13:10:58;;;;;;;14.80;11.77;;;;;;;;;;10071978;28;20403;-66
2023/03/10 13:16:05;;;;;;;23.33;12.88;;;;;;;;;;10077215;28;20049;-67
2023/03/10 13:21:01;;;;;;;28.30;12.67;;;;;;;;;;10058782;28;20057;-67
2023/03/10 13:25:57;;;;;;;15.00;10.55;;;;;;;;;;10067855;28;20091;-67
2023/03/10 13:30:49;;;;;;;16.95;11.98;;;;;;;;;;10063284;28;21580;-67
2023/03/10 13:35:45;;;;;;;14.88;12.80;;;;;;;;;;10065876;28;20045;-67
2023/03/10 13:40:44;;;;;;;26.40;13.50;;;;;;;;;;10066974;28;20055;-67
2023/03/10 13:45:43;;;;;;;16.90;11.57;;;;;;;;;;10062069;28;20041;-67
2023/03/10 13:50:36;;;;;;;20.58;13.45;;;;;;;;;;10066353;28;20053;-68
2023/03/10 13:55:39;;;;;;;18.55;12.80;;;;;;;;;;10066693;28;20052;-67
2023/03/10 14:00:34;;;;;;;15.32;10.88;;;;;;;;;;10065062;28;20060;-67
2023/03/10 14:05:45;;;;;;;17.23;11.68;;;;;;;;;;10066576;28;20053;-68
2023/03/10 14:10:39;;;;;;;12.98;10.43;;;;;;;;;;10065068;28;20042;-68
2023/03/10 14:15:37;;;;;;;13.75;8.63;;;;;;;;;;10065376;28;20041;-67
2023/03/10 14:20:34;;;;;;;12.55;8.75;;;;;;;;;;10066112;28;20062;-67
2023/03/10 14:25:27;;;;;;;9.73;7.67;;;;;;;;;;10065540;28;20488;-66
2023/03/10 14:30:24;;;;;;;18.05;10.80;;;;;;;;;;10062776;28;20045;-66
2023/03/10 14:35:19;;;;;;;27.13;10.75;;;;;;;;;;10064106;28;20064;-67
2023/03/10 14:40:12;;;;;;;19.90;9.65;;;;;;;;;;10064340;28;20500;-67
2023/03/10 14:45:33;;;;;;;12.30;8.10;;;;;;;;;;10063979;28;20046;-67
2023/03/10 14:50:27;;;;;;;12.85;8.88;;;;;;;;;;10063442;28;20053;-67
2023/03/10 14:55:21;;;;;;;15.27;7.70;;;;;;;;;;10064628;28;20119;-67
2023/03/10 15:00:17;;;;;;;16.83;8.32;;;;;;;;;;10064488;28;20495;-67
2023/03/10 15:05:18;;;;;;;14.18;8.93;;;;;;;;;;10056574;28;20136;-66
2023/03/10 15:10:12;;;;;;;14.60;8.85;;;;;;;;;;10035687;28;20045;-67
2023/03/10 15:15:05;;;;;;;19.83;10.45;;;;;;;;;;10060646;28;20045;-67
2023/03/10 15:19:59;;;;;;;15.23;10.10;;;;;;;;;;10059321;28;20137;-67
2023/03/10 15:24:52;;;;;;;13.93;9.30;;;;;;;;;;10057882;28;20061;-66
2023/03/10 15:29:44;;;;;;;13.93;9.98;;;;;;;;;;10067310;28;20140;-66
2023/03/10 15:34:38;;;;;;;14.77;9.38;;;;;;;;;;10066971;28;20061;-66
2023/03/10 15:39:31;;;;;;;17.40;9.30;;;;;;;;;;10060816;28;20046;-66
2023/03/10 15:44:28;;;;;;;15.82;9.48;;;;;;;;;;10066194;28;20115;-66
2023/03/10 15:49:21;;;;;;;17.23;9.68;;;;;;;;;;10067187;28;20527;-66
2023/03/10 15:54:14;;;;;;;15.07;9.27;;;;;;;;;;10072573;28;20107;-66
2023/03/10 15:59:07;;;;;;;18.40;9.02;;;;;;;;;;10075665;28;20496;-66
2023/03/10 16:04:04;;;;;;;20.42;10.02;;;;;;;;;;10069870;28;20408;-67
2023/03/10 16:08:58;;;;;;;18.13;10.00;;;;;;;;;;10065434;28;20067;-67
2023/03/10 16:13:51;;;;;;;17.55;10.05;;;;;;;;;;10069657;28;20049;-67
2023/03/10 16:19:03;;;;;;;18.13;9.38;;;;;;;;;;10069909;28;20404;-67
2023/03/10 16:23:58;;;;;;;10.90;8.75;;;;;;;;;;10069853;28;20081;-67
2023/03/10 16:28:53;;;;;;;34.08;11.60;;;;;;;;;;10070257;28;20084;-66
2023/03/10 16:33:47;;;;;;;11.73;8.40;;;;;;;;;;10069496;28;20440;-67
2023/03/10 16:38:40;;;;;;;16.50;8.88;;;;;;;;;;10070241;28;20046;-66
2023/03/10 16:43:34;;;;;;;13.40;8.77;;;;;;;;;;10079214;28;20535;-66
2023/03/10 16:48:28;;;;;;;17.55;9.65;;;;;;;;;;10068732;28;20451;-66
2023/03/10 16:53:21;;;;;;;24.98;10.07;;;;;;;;;;10068954;28;20058;-65
2023/03/10 16:58:15;;;;;;;15.60;8.60;;;;;;;;;;10067519;28;20057;-65
2023/03/10 17:03:07;;;;;;;9.95;6.18;;;;;;;;;;10065992;28;20053;-66
2023/03/10 17:08:04;;;;;;;15.30;7.00;;;;;;;;;;10065246;28;20432;-66
2023/03/10 17:12:58;;;;;;;15.05;8.05;;;;;;;;;;10067060;28;20512;-66
2023/03/10 17:17:52;;;;;;;15.70;8.20;;;;;;;;;;10064941;28;20076;-66
2023/03/10 17:22:45;;;;;;;13.25;6.47;;;;;;;;;;10065286;28;20049;-66
2023/03/10 17:27:38;;;;;;;14.55;7.70;;;;;;;;;;10061079;28;20058;-66
2023/03/10 17:32:35;;;;;;;15.32;8.20;;;;;;;;;;10064375;28;20139;-66
2023/03/10 17:37:30;;;;;;;9.80;5.70;;;;;;;;;;10067637;28;20073;-65
2023/03/10 17:42:24;;;;;;;11.38;6.88;;;;;;;;;;10067108;28;20037;-65
2023/03/10 17:47:17;;;;;;;17.27;7.82;;;;;;;;;;10067320;28;20392;-66
2023/03/10 17:52:11;;;;;;;14.25;5.88;;;;;;;;;;10067746;28;20068;-65
2023/03/10 17:57:05;;;;;;;12.73;6.05;;;;;;;;;;10066977;28;20048;-65
2023/03/10 18:02:01;;;;;;;13.80;7.40;;;;;;;;;;10069465;28;20095;-66
2023/03/10 18:06:55;;;;;;;15.38;8.82;;;;;;;;;;10072661;28;20107;-65
2023/03/10 18:11:48;;;;;;;12.68;6.80;;;;;;;;;;10058723;28;20083;-66
2023/03/10 18:16:41;;;;;;;9.05;5.50;;;;;;;;;;10064071;28;20064;-66
2023/03/10 18:21:35;;;;;;;10.52;6.68;;;;;;;;;;10065429;28;20045;-65
2023/03/10 18:26:32;;;;;;;14.45;6.80;;;;;;;;;;10065477;28;20393;-65
2023/03/10 18:31:42;;;;;;;11.02;7.13;;;;;;;;;;10064960;28;20049;-65
2023/03/10 18:36:36;;;;;;;14.23;7.88;;;;;;;;;;10044446;28;20052;-66
2023/03/10 18:41:31;;;;;;;13.18;7.25;;;;;;;;;;10037083;28;20053;-66
2023/03/10 18:46:24;;;;;;;14.25;6.80;;;;;;;;;;10033871;28;20461;-66
2023/03/10 18:51:18;;;;;;;10.18;6.07;;;;;;;;;;10046164;28;20122;-66
2023/03/10 18:56:10;;;;;;;14.43;7.28;;;;;;;;;;10050559;28;20085;-66
2023/03/10 19:01:09;;;;;;;9.35;7.10;;;;;;;;;;10050341;28;20612;-68
2023/03/10 19:06:02;;;;;;;8.48;7.00;;;;;;;;;;10062613;28;20055;-69
2023/03/10 19:10:58;;;;;;;10.90;6.90;;;;;;;;;;10064630;28;20041;-69
2023/03/10 19:15:51;;;;;;;13.90;7.55;;;;;;;;;;10065694;28;20119;-69
2023/03/10 19:20:45;;;;;;;11.05;8.50;;;;;;;;;;10065114;28;20038;-69
2023/03/10 19:25:38;;;;;;;14.02;7.25;;;;;;;;;;10064279;28;20069;-69
2023/03/10 19:30:32;;;;;;;12.30;7.95;;;;;;;;;;10061257;28;20045;-68
2023/03/10 19:35:25;;;;;;;12.40;8.82;;;;;;;;;;10056898;28;20042;-70
2023/03/10 19:40:19;;;;;;;15.07;9.07;;;;;;;;;;10055573;28;20081;-66
2023/03/10 19:45:15;;;;;;;13.80;10.68;;;;;;;;;;10068958;28;20050;-66
2023/03/10 19:50:13;;;;;;;18.83;9.95;;;;;;;;;;10063858;28;20168;-67
2023/03/10 19:55:08;;;;;;;13.13;9.23;;;;;;;;;;10058106;28;20449;-68
2023/03/10 20:00:06;;;;;;;11.88;8.20;;;;;;;;;;10065168;28;20072;-67
2023/03/10 20:04:58;;;;;;;15.70;8.63;;;;;;;;;;10060331;28;20067;-67
2023/03/10 20:09:52;;;;;;;9.65;6.65;;;;;;;;;;10058959;28;20452;-67
2023/03/10 20:14:46;;;;;;;9.93;5.25;;;;;;;;;;10061143;28;20133;-67
2023/03/10 20:19:42;;;;;;;9.68;5.10;;;;;;;;;;10057926;28;20038;-68
2023/03/10 20:24:34;;;;;;;7.22;4.28;;;;;;;;;;10060597;28;20057;-69
2023/03/10 20:29:27;;;;;;;5.30;3.28;;;;;;;;;;10058998;28;21862;-69
2023/03/10 20:34:21;;;;;;;6.93;3.42;;;;;;;;;;10058101;28;20059;-68
2023/03/10 20:39:14;;;;;;;5.88;3.13;;;;;;;;;;10063286;28;20048;-68
2023/03/10 20:44:12;;;;;;;4.57;3.08;;;;;;;;;;10059396;28;20053;-67
2023/03/10 20:49:06;;;;;;;10.70;3.27;;;;;;;;;;10057515;28;20052;-68
2023/03/10 20:54:01;;;;;;;7.90;3.30;;;;;;;;;;10062382;28;20701;-69
2023/03/10 20:58:58;;;;;;;8.27;2.00;;;;;;;;;;10056127;28;20053;-68
2023/03/10 21:03:53;;;;;;;9.80;3.80;;;;;;;;;;10056260;28;20045;-68
2023/03/10 21:08:46;;;;;;;5.90;1.75;;;;;;;;;;10056864;28;20054;-68
2023/03/10 21:13:40;;;;;;;4.47;2.13;;;;;;;;;;10045931;28;20049;-67
2023/03/10 21:18:34;;;;;;;2.13;1.52;;;;;;;;;;10056528;28;20049;-68
2023/03/10 21:23:28;;;;;;;2.92;1.42;;;;;;;;;;10049258;28;20082;-67
2023/03/10 21:28:31;;;;;;;1.83;1.42;;;;;;;;;;10052523;28;20084;-67
2023/03/10 21:33:26;;;;;;;4.03;1.50;;;;;;;;;;10052546;28;20062;-67
2023/03/10 21:38:19;;;;;;;4.72;1.40;;;;;;;;;;10049434;28;20057;-67
2023/03/10 21:43:14;;;;;;;3.22;1.20;;;;;;;;;;10056177;28;20152;-67
2023/03/10 21:48:10;;;;;;;4.15;1.00;;;;;;;;;;10046756;28;20140;-67
2023/03/10 21:53:04;;;;;;;4.50;1.40;;;;;;;;;;10059758;28;20058;-70
2023/03/10 21:57:58;;;;;;;2.20;1.48;;;;;;;;;;10067011;28;20455;-66
2023/03/10 22:02:53;;;;;;;3.63;1.30;;;;;;;;;;10081542;28;20514;-69
2023/03/10 22:07:47;;;;;;;5.13;1.40;;;;;;;;;;10067123;28;20095;-67
2023/03/10 22:12:41;;;;;;;5.38;1.40;;;;;;;;;;10066595;28;20049;-66
2023/03/10 22:17:33;;;;;;;3.15;1.60;;;;;;;;;;10066873;28;20058;-66
2023/03/10 22:22:27;;;;;;;5.00;1.20;;;;;;;;;;10073983;28;20072;-66
2023/03/10 22:27:20;;;;;;;4.40;1.20;;;;;;;;;;10067125;28;20045;-66
2023/03/10 22:32:13;;;;;;;3.92;1.35;;;;;;;;;;10066043;28;20053;-67
2023/03/10 22:37:09;;;;;;;2.72;1.75;;;;;;;;;;10066701;28;20046;-69
2023/03/10 22:42:03;;;;;;;4.82;1.15;;;;;;;;;;10065413;28;20515;-69
2023/03/10 22:46:57;;;;;;;1.77;0.85;;;;;;;;;;10047416;28;20045;-68
2023/03/10 22:51:51;;;;;;;2.65;1.20;;;;;;;;;;10050842;28;20084;-68
2023/03/10 22:56:43;;;;;;;3.05;0.85;;;;;;;;;;10048447;28;20042;-69
2023/03/10 23:01:37;;;;;;;2.55;1.27;;;;;;;;;;10055896;28;20050;-69
2023/03/10 23:06:34;;;;;;;2.30;1.10;;;;;;;;;;10051641;28;20050;-68
2023/03/10 23:11:27;;;;;;;1.90;1.13;;;;;;;;;;10049436;28;20422;-68
2023/03/10 23:16:22;;;;;;;2.22;1.20;;;;;;;;;;10056537;28;20069;-68
2023/03/10 23:21:15;;;;;;;2.58;1.35;;;;;;;;;;10047503;28;20077;-68
2023/03/10 23:26:07;;;;;;;2.25;1.10;;;;;;;;;;10053303;28;20049;-68
2023/03/10 23:31:01;;;;;;;2.65;1.13;;;;;;;;;;10050752;28;20463;-68
2023/03/10 23:35:54;;;;;;;3.15;1.20;;;;;;;;;;10059889;28;20136;-68
2023/03/10 23:40:49;;;;;;;3.35;1.20;;;;;;;;;;10062988;28;20555;-68
2023/03/10 23:45:42;;;;;;;1.88;1.17;;;;;;;;;;10053083;28;20064;-68
2023/03/10 23:50:38;;;;;;;3.90;1.15;;;;;;;;;;10054826;28;20072;-69
2023/03/10 23:55:34;;;;;;;2.75;1.40;;;;;;;;;;10055768;28;20077;-69
